sensor_id;sensor_type;location;lat;lon;timestamp;P1;durP1;ratioP1;P2;durP2;ratioP2
58685;SDS011;44465;53.206;-6.106;2022-12-18T00:01:21;7.15;;;5.05;;
58685;SDS011;44465;53.206;-6.106;2022-12-18T00:03:50;7.82;;;5.10;;
58685;SDS011;44465;53.206;-6.106;2022-12-18T00:06:17;8.18;;;4.88;;
58685;SDS011;44465;53.206;-6.106;2022-12-18T00:08:44;6.75;;;4.85;;
58685;SDS011;44465;53.206;-6.106;2022-12-18T00:13:38;6.38;;;4.53;;
58685;SDS011;44465;53.206;-6.106;2022-12-18T00:16:05;6.43;;;4.53;;
58685;SDS011;44465;53.206;-6.106;2022-12-18T00:18:33;7.80;;;4.70;;
58685;SDS011;44465;53.206;-6.106;2022-12-18T00:21:00;5.72;;;4.47;;
58685;SDS011;44465;53.206;-6.106;2022-12-18T00:23:27;6.25;;;5.03;;
58685;SDS011;44465;53.206;-6.106;2022-12-18T00:25:54;6.50;;;4.30;;
58685;SDS011;44465;53.206;-6.106;2022-12-18T00:28:20;5.60;;;4.55;;
58685;SDS011;44465;53.206;-6.106;2022-12-18T00:30:45;6.63;;;4.57;;
58685;SDS011;44465;53.206;-6.106;2022-12-18T00:33:11;7.68;;;4.50;;
58685;SDS011;44465;53.206;-6.106;2022-12-18T00:35:37;8.30;;;4.93;;
58685;SDS011;44465;53.206;-6.106;2022-12-18T00:38:02;7.63;;;4.10;;
58685;SDS011;44465;53.206;-6.106;2022-12-18T00:40:28;7.18;;;4.28;;
58685;SDS011;44465;53.206;-6.106;2022-12-18T00:42:53;8.52;;;4.30;;
58685;SDS011;44465;53.206;-6.106;2022-12-18T00:45:26;9.15;;;4.38;;
58685;SDS011;44465;53.206;-6.106;2022-12-18T00:47:53;8.50;;;4.10;;
58685;SDS011;44465;53.206;-6.106;2022-12-18T00:50:21;6.67;;;4.10;;
58685;SDS011;44465;53.206;-6.106;2022-12-18T00:52:48;8.38;;;4.55;;
58685;SDS011;44465;53.206;-6.106;2022-12-18T00:55:13;6.25;;;3.97;;
58685;SDS011;44465;53.206;-6.106;2022-12-18T00:57:41;6.03;;;4.40;;
58685;SDS011;44465;53.206;-6.106;2022-12-18T01:00:09;6.57;;;3.85;;
58685;SDS011;44465;53.206;-6.106;2022-12-18T01:02:50;6.72;;;4.40;;
58685;SDS011;44465;53.206;-6.106;2022-12-18T01:05:16;5.75;;;4.20;;
58685;SDS011;44465;53.206;-6.106;2022-12-18T01:07:41;5.75;;;4.10;;
58685;SDS011;44465;53.206;-6.106;2022-12-18T01:10:07;7.55;;;3.78;;
58685;SDS011;44465;53.206;-6.106;2022-12-18T01:12:34;4.95;;;3.53;;
58685;SDS011;44465;53.206;-6.106;2022-12-18T01:15:00;6.80;;;4.07;;
58685;SDS011;44465;53.206;-6.106;2022-12-18T01:17:26;6.43;;;4.07;;
58685;SDS011;44465;53.206;-6.106;2022-12-18T01:19:52;5.03;;;3.92;;
58685;SDS011;44465;53.206;-6.106;2022-12-18T01:22:18;7.07;;;3.38;;
58685;SDS011;44465;53.206;-6.106;2022-12-18T01:29:58;5.10;;;3.50;;
58685;SDS011;44465;53.206;-6.106;2022-12-18T01:32:24;5.72;;;4.13;;
58685;SDS011;44465;53.206;-6.106;2022-12-18T01:34:50;5.10;;;3.55;;
58685;SDS011;44465;53.206;-6.106;2022-12-18T01:37:16;6.57;;;3.47;;
58685;SDS011;44465;53.206;-6.106;2022-12-18T01:39:42;4.25;;;3.40;;
58685;SDS011;44465;53.206;-6.106;2022-12-18T01:42:11;4.30;;;3.50;;
58685;SDS011;44465;53.206;-6.106;2022-12-18T01:50:15;4.32;;;3.22;;
58685;SDS011;44465;53.206;-6.106;2022-12-18T01:52:52;4.50;;;3.33;;
58685;SDS011;44465;53.206;-6.106;2022-12-18T01:55:23;5.22;;;3.67;;
58685;SDS011;44465;53.206;-6.106;2022-12-18T01:57:52;4.60;;;3.08;;
58685;SDS011;44465;53.206;-6.106;2022-12-18T02:00:20;5.72;;;3.33;;
58685;SDS011;44465;53.206;-6.106;2022-12-18T02:02:47;3.43;;;3.03;;
58685;SDS011;44465;53.206;-6.106;2022-12-18T02:08:22;3.22;;;2.70;;
58685;SDS011;44465;53.206;-6.106;2022-12-18T02:18:59;3.90;;;2.30;;
58685;SDS011;44465;53.206;-6.106;2022-12-18T02:21:45;3.95;;;2.58;;
58685;SDS011;44465;53.206;-6.106;2022-12-18T02:27:08;4.22;;;2.55;;
58685;SDS011;44465;53.206;-6.106;2022-12-18T02:32:08;3.72;;;2.35;;
58685;SDS011;44465;53.206;-6.106;2022-12-18T02:34:38;2.50;;;2.30;;
58685;SDS011;44465;53.206;-6.106;2022-12-18T02:37:09;2.90;;;2.30;;
58685;SDS011;44465;53.206;-6.106;2022-12-18T02:39:44;2.90;;;2.20;;
58685;SDS011;44465;53.206;-6.106;2022-12-18T02:42:13;4.07;;;2.55;;
58685;SDS011;44465;53.206;-6.106;2022-12-18T02:44:43;3.50;;;2.42;;
58685;SDS011;44465;53.206;-6.106;2022-12-18T02:47:13;2.65;;;2.00;;
58685;SDS011;44465;53.206;-6.106;2022-12-18T03:04:55;2.92;;;2.20;;
58685;SDS011;44465;53.206;-6.106;2022-12-18T03:07:21;3.95;;;2.10;;
58685;SDS011;44465;53.206;-6.106;2022-12-18T03:09:58;2.17;;;1.98;;
58685;SDS011;44465;53.206;-6.106;2022-12-18T03:12:35;2.70;;;1.77;;
58685;SDS011;44465;53.206;-6.106;2022-12-18T03:15:13;1.75;;;1.65;;
58685;SDS011;44465;53.206;-6.106;2022-12-18T03:18:02;2.85;;;1.58;;
58685;SDS011;44465;53.206;-6.106;2022-12-18T03:20:35;2.88;;;1.90;;
58685;SDS011;44465;53.206;-6.106;2022-12-18T03:23:09;3.47;;;2.22;;
58685;SDS011;44465;53.206;-6.106;2022-12-18T03:25:44;1.73;;;1.63;;
58685;SDS011;44465;53.206;-6.106;2022-12-18T03:28:14;2.22;;;1.88;;
58685;SDS011;44465;53.206;-6.106;2022-12-18T03:30:44;2.08;;;1.38;;
58685;SDS011;44465;53.206;-6.106;2022-12-18T03:35:52;2.78;;;1.58;;
58685;SDS011;44465;53.206;-6.106;2022-12-18T03:38:18;2.70;;;1.60;;
58685;SDS011;44465;53.206;-6.106;2022-12-18T03:46:30;2.30;;;1.70;;
58685;SDS011;44465;53.206;-6.106;2022-12-18T03:49:14;2.85;;;1.88;;
58685;SDS011;44465;53.206;-6.106;2022-12-18T03:51:56;2.95;;;2.00;;
58685;SDS011;44465;53.206;-6.106;2022-12-18T03:54:27;1.58;;;1.48;;
58685;SDS011;44465;53.206;-6.106;2022-12-18T03:57:05;5.35;;;1.65;;
58685;SDS011;44465;53.206;-6.106;2022-12-18T03:59:47;4.25;;;1.42;;
58685;SDS011;44465;53.206;-6.106;2022-12-18T04:02:19;2.85;;;1.98;;
58685;SDS011;44465;53.206;-6.106;2022-12-18T04:04:48;2.50;;;1.77;;
58685;SDS011;44465;53.206;-6.106;2022-12-18T04:07:18;3.05;;;2.08;;
58685;SDS011;44465;53.206;-6.106;2022-12-18T04:09:48;2.55;;;1.50;;
58685;SDS011;44465;53.206;-6.106;2022-12-18T04:12:17;1.65;;;1.52;;
58685;SDS011;44465;53.206;-6.106;2022-12-18T04:14:45;1.50;;;1.40;;
58685;SDS011;44465;53.206;-6.106;2022-12-18T04:17:12;1.70;;;1.60;;
58685;SDS011;44465;53.206;-6.106;2022-12-18T04:19:37;2.50;;;1.70;;
58685;SDS011;44465;53.206;-6.106;2022-12-18T04:22:03;4.50;;;1.73;;
58685;SDS011;44465;53.206;-6.106;2022-12-18T04:24:34;1.70;;;1.60;;
58685;SDS011;44465;53.206;-6.106;2022-12-18T04:27:06;3.38;;;1.77;;
58685;SDS011;44465;53.206;-6.106;2022-12-18T04:29:38;2.08;;;1.88;;
58685;SDS011;44465;53.206;-6.106;2022-12-18T04:32:04;2.47;;;1.77;;
58685;SDS011;44465;53.206;-6.106;2022-12-18T04:34:31;2.50;;;1.92;;
58685;SDS011;44465;53.206;-6.106;2022-12-18T04:36:57;2.13;;;1.63;;
58685;SDS011;44465;53.206;-6.106;2022-12-18T04:39:24;1.65;;;1.50;;
58685;SDS011;44465;53.206;-6.106;2022-12-18T04:41:52;2.17;;;1.55;;
58685;SDS011;44465;53.206;-6.106;2022-12-18T04:44:18;2.80;;;1.75;;
58685;SDS011;44465;53.206;-6.106;2022-12-18T04:46:45;3.47;;;1.48;;
58685;SDS011;44465;53.206;-6.106;2022-12-18T04:49:11;2.90;;;1.65;;
58685;SDS011;44465;53.206;-6.106;2022-12-18T04:51:37;4.97;;;2.00;;
58685;SDS011;44465;53.206;-6.106;2022-12-18T04:54:03;1.60;;;1.40;;
58685;SDS011;44465;53.206;-6.106;2022-12-18T04:56:30;1.50;;;1.40;;
58685;SDS011;44465;53.206;-6.106;2022-12-18T04:58:56;2.05;;;1.60;;
58685;SDS011;44465;53.206;-6.106;2022-12-18T05:01:22;2.92;;;1.80;;
58685;SDS011;44465;53.206;-6.106;2022-12-18T05:03:51;3.60;;;1.80;;
58685;SDS011;44465;53.206;-6.106;2022-12-18T05:06:17;3.03;;;1.77;;
58685;SDS011;44465;53.206;-6.106;2022-12-18T05:08:43;1.35;;;1.25;;
58685;SDS011;44465;53.206;-6.106;2022-12-18T05:11:09;1.55;;;1.33;;
58685;SDS011;44465;53.206;-6.106;2022-12-18T05:13:37;3.40;;;1.83;;
58685;SDS011;44465;53.206;-6.106;2022-12-18T05:16:03;2.80;;;1.80;;
58685;SDS011;44465;53.206;-6.106;2022-12-18T05:18:30;2.25;;;1.85;;
58685;SDS011;44465;53.206;-6.106;2022-12-18T05:20:56;2.70;;;1.67;;
58685;SDS011;44465;53.206;-6.106;2022-12-18T05:23:22;1.73;;;1.27;;
58685;SDS011;44465;53.206;-6.106;2022-12-18T05:25:55;3.70;;;2.13;;
58685;SDS011;44465;53.206;-6.106;2022-12-18T05:28:26;1.48;;;1.38;;
58685;SDS011;44465;53.206;-6.106;2022-12-18T05:33:20;1.83;;;1.10;;
58685;SDS011;44465;53.206;-6.106;2022-12-18T05:35:54;3.08;;;1.60;;
58685;SDS011;44465;53.206;-6.106;2022-12-18T05:38:21;2.42;;;1.40;;
58685;SDS011;44465;53.206;-6.106;2022-12-18T05:40:48;1.80;;;1.70;;
58685;SDS011;44465;53.206;-6.106;2022-12-18T05:43:15;1.65;;;1.20;;
58685;SDS011;44465;53.206;-6.106;2022-12-18T05:45:41;1.75;;;1.60;;
58685;SDS011;44465;53.206;-6.106;2022-12-18T05:48:06;2.38;;;1.70;;
58685;SDS011;44465;53.206;-6.106;2022-12-18T05:50:34;4.15;;;1.73;;
58685;SDS011;44465;53.206;-6.106;2022-12-18T05:55:26;2.40;;;1.30;;
58685;SDS011;44465;53.206;-6.106;2022-12-18T05:57:52;2.78;;;1.55;;
58685;SDS011;44465;53.206;-6.106;2022-12-18T06:00:21;1.50;;;1.40;;
58685;SDS011;44465;53.206;-6.106;2022-12-18T06:02:47;3.47;;;1.55;;
58685;SDS011;44465;53.206;-6.106;2022-12-18T06:05:12;3.67;;;1.80;;
58685;SDS011;44465;53.206;-6.106;2022-12-18T06:07:39;1.65;;;1.55;;
58685;SDS011;44465;53.206;-6.106;2022-12-18T06:10:05;1.95;;;1.50;;
58685;SDS011;44465;53.206;-6.106;2022-12-18T06:12:31;3.25;;;1.40;;
58685;SDS011;44465;53.206;-6.106;2022-12-18T06:14:59;2.47;;;1.38;;
58685;SDS011;44465;53.206;-6.106;2022-12-18T06:17:29;1.60;;;1.50;;
58685;SDS011;44465;53.206;-6.106;2022-12-18T06:19:55;1.92;;;1.50;;
58685;SDS011;44465;53.206;-6.106;2022-12-18T06:22:21;3.85;;;1.48;;
58685;SDS011;44465;53.206;-6.106;2022-12-18T06:24:47;1.77;;;1.23;;
58685;SDS011;44465;53.206;-6.106;2022-12-18T06:27:13;3.35;;;1.48;;
58685;SDS011;44465;53.206;-6.106;2022-12-18T06:29:39;2.35;;;1.40;;
58685;SDS011;44465;53.206;-6.106;2022-12-18T06:32:05;1.85;;;1.20;;
58685;SDS011;44465;53.206;-6.106;2022-12-18T06:34:31;2.00;;;1.35;;
58685;SDS011;44465;53.206;-6.106;2022-12-18T06:36:57;1.88;;;1.33;;
58685;SDS011;44465;53.206;-6.106;2022-12-18T06:39:23;1.77;;;1.40;;
58685;SDS011;44465;53.206;-6.106;2022-12-18T06:41:49;1.85;;;1.20;;
58685;SDS011;44465;53.206;-6.106;2022-12-18T06:44:15;2.08;;;1.25;;
58685;SDS011;44465;53.206;-6.106;2022-12-18T06:46:41;4.40;;;1.30;;
58685;SDS011;44465;53.206;-6.106;2022-12-18T06:49:06;1.75;;;1.30;;
58685;SDS011;44465;53.206;-6.106;2022-12-18T06:51:34;1.70;;;1.38;;
58685;SDS011;44465;53.206;-6.106;2022-12-18T06:53:59;1.98;;;1.33;;
58685;SDS011;44465;53.206;-6.106;2022-12-18T06:56:25;1.63;;;1.45;;
58685;SDS011;44465;53.206;-6.106;2022-12-18T06:58:51;3.42;;;1.40;;
58685;SDS011;44465;53.206;-6.106;2022-12-18T07:01:16;2.10;;;1.20;;
58685;SDS011;44465;53.206;-6.106;2022-12-18T07:03:45;3.38;;;1.17;;
58685;SDS011;44465;53.206;-6.106;2022-12-18T07:06:14;2.03;;;1.20;;
58685;SDS011;44465;53.206;-6.106;2022-12-18T07:08:42;2.15;;;1.10;;
58685;SDS011;44465;53.206;-6.106;2022-12-18T07:11:07;4.05;;;1.52;;
58685;SDS011;44465;53.206;-6.106;2022-12-18T07:13:34;2.05;;;1.45;;
58685;SDS011;44465;53.206;-6.106;2022-12-18T07:16:03;3.10;;;1.45;;
58685;SDS011;44465;53.206;-6.106;2022-12-18T07:18:30;2.25;;;1.27;;
58685;SDS011;44465;53.206;-6.106;2022-12-18T07:20:56;1.63;;;1.17;;
58685;SDS011;44465;53.206;-6.106;2022-12-18T07:23:21;1.60;;;1.30;;
58685;SDS011;44465;53.206;-6.106;2022-12-18T07:25:47;1.30;;;1.05;;
58685;SDS011;44465;53.206;-6.106;2022-12-18T07:28:13;0.90;;;0.85;;
58685;SDS011;44465;53.206;-6.106;2022-12-18T07:30:39;1.85;;;1.48;;
58685;SDS011;44465;53.206;-6.106;2022-12-18T07:33:05;2.10;;;1.20;;
58685;SDS011;44465;53.206;-6.106;2022-12-18T07:35:32;1.90;;;1.13;;
58685;SDS011;44465;53.206;-6.106;2022-12-18T07:37:58;1.67;;;1.33;;
58685;SDS011;44465;53.206;-6.106;2022-12-18T07:40:23;3.13;;;1.20;;
58685;SDS011;44465;53.206;-6.106;2022-12-18T07:42:49;2.30;;;1.17;;
58685;SDS011;44465;53.206;-6.106;2022-12-18T07:45:14;1.92;;;1.48;;
58685;SDS011;44465;53.206;-6.106;2022-12-18T07:47:40;1.20;;;1.05;;
58685;SDS011;44465;53.206;-6.106;2022-12-18T07:50:18;1.23;;;1.13;;
58685;SDS011;44465;53.206;-6.106;2022-12-18T07:52:44;2.63;;;1.50;;
58685;SDS011;44465;53.206;-6.106;2022-12-18T07:55:09;2.05;;;1.10;;
58685;SDS011;44465;53.206;-6.106;2022-12-18T07:57:35;2.30;;;1.15;;
58685;SDS011;44465;53.206;-6.106;2022-12-18T08:00:01;2.92;;;1.38;;
58685;SDS011;44465;53.206;-6.106;2022-12-18T08:02:26;1.42;;;1.33;;
58685;SDS011;44465;53.206;-6.106;2022-12-18T08:04:56;2.88;;;1.50;;
58685;SDS011;44465;53.206;-6.106;2022-12-18T08:07:21;3.55;;;1.15;;
58685;SDS011;44465;53.206;-6.106;2022-12-18T08:09:47;1.38;;;1.20;;
58685;SDS011;44465;53.206;-6.106;2022-12-18T08:12:12;3.58;;;1.65;;
58685;SDS011;44465;53.206;-6.106;2022-12-18T08:14:38;3.10;;;1.42;;
58685;SDS011;44465;53.206;-6.106;2022-12-18T08:17:03;2.35;;;1.25;;
58685;SDS011;44465;53.206;-6.106;2022-12-18T08:19:29;1.30;;;1.10;;
58685;SDS011;44465;53.206;-6.106;2022-12-18T08:21:55;1.88;;;1.30;;
58685;SDS011;44465;53.206;-6.106;2022-12-18T08:24:20;1.48;;;1.30;;
58685;SDS011;44465;53.206;-6.106;2022-12-18T08:26:46;2.78;;;0.98;;
58685;SDS011;44465;53.206;-6.106;2022-12-18T08:29:11;1.20;;;1.15;;
58685;SDS011;44465;53.206;-6.106;2022-12-18T08:31:37;1.63;;;1.40;;
58685;SDS011;44465;53.206;-6.106;2022-12-18T08:34:03;1.45;;;1.27;;
58685;SDS011;44465;53.206;-6.106;2022-12-18T08:36:28;2.67;;;1.52;;
58685;SDS011;44465;53.206;-6.106;2022-12-18T08:38:54;2.22;;;1.30;;
58685;SDS011;44465;53.206;-6.106;2022-12-18T08:41:20;1.58;;;1.17;;
58685;SDS011;44465;53.206;-6.106;2022-12-18T08:43:46;3.88;;;1.50;;
58685;SDS011;44465;53.206;-6.106;2022-12-18T08:46:37;1.25;;;1.15;;
58685;SDS011;44465;53.206;-6.106;2022-12-18T08:49:06;1.98;;;1.15;;
58685;SDS011;44465;53.206;-6.106;2022-12-18T08:51:33;1.48;;;1.25;;
58685;SDS011;44465;53.206;-6.106;2022-12-18T08:53:59;2.30;;;1.58;;
58685;SDS011;44465;53.206;-6.106;2022-12-18T08:56:25;1.65;;;1.45;;
58685;SDS011;44465;53.206;-6.106;2022-12-18T08:58:52;1.02;;;0.93;;
58685;SDS011;44465;53.206;-6.106;2022-12-18T09:01:18;1.73;;;1.37;;
58685;SDS011;44465;53.206;-6.106;2022-12-18T09:03:44;1.52;;;1.13;;
58685;SDS011;44465;53.206;-6.106;2022-12-18T09:06:16;2.75;;;1.58;;
58685;SDS011;44465;53.206;-6.106;2022-12-18T09:08:43;2.67;;;1.40;;
58685;SDS011;44465;53.206;-6.106;2022-12-18T09:11:20;2.17;;;1.55;;
58685;SDS011;44465;53.206;-6.106;2022-12-18T09:13:48;1.90;;;1.20;;
58685;SDS011;44465;53.206;-6.106;2022-12-18T09:16:17;1.50;;;1.30;;
58685;SDS011;44465;53.206;-6.106;2022-12-18T09:18:43;1.50;;;1.02;;
58685;SDS011;44465;53.206;-6.106;2022-12-18T09:21:13;3.10;;;1.58;;
58685;SDS011;44465;53.206;-6.106;2022-12-18T09:23:40;2.25;;;1.60;;
58685;SDS011;44465;53.206;-6.106;2022-12-18T09:26:06;2.90;;;1.50;;
58685;SDS011;44465;53.206;-6.106;2022-12-18T09:28:32;2.30;;;1.38;;
58685;SDS011;44465;53.206;-6.106;2022-12-18T09:30:58;2.63;;;1.40;;
58685;SDS011;44465;53.206;-6.106;2022-12-18T09:33:24;1.10;;;1.00;;
58685;SDS011;44465;53.206;-6.106;2022-12-18T09:35:50;1.92;;;1.45;;
58685;SDS011;44465;53.206;-6.106;2022-12-18T09:38:17;3.40;;;1.02;;
58685;SDS011;44465;53.206;-6.106;2022-12-18T09:43:14;1.48;;;1.20;;
58685;SDS011;44465;53.206;-6.106;2022-12-18T09:45:46;2.03;;;1.30;;
58685;SDS011;44465;53.206;-6.106;2022-12-18T09:48:37;2.33;;;1.50;;
58685;SDS011;44465;53.206;-6.106;2022-12-18T09:51:12;2.05;;;1.40;;
58685;SDS011;44465;53.206;-6.106;2022-12-18T09:53:41;1.25;;;1.10;;
58685;SDS011;44465;53.206;-6.106;2022-12-18T09:56:16;1.60;;;1.10;;
58685;SDS011;44465;53.206;-6.106;2022-12-18T09:58:49;2.97;;;1.20;;
58685;SDS011;44465;53.206;-6.106;2022-12-18T10:01:22;1.83;;;1.13;;
58685;SDS011;44465;53.206;-6.106;2022-12-18T10:03:49;1.70;;;1.08;;
58685;SDS011;44465;53.206;-6.106;2022-12-18T10:20:38;4.22;;;1.40;;
58685;SDS011;44465;53.206;-6.106;2022-12-18T10:26:00;1.30;;;1.20;;
58685;SDS011;44465;53.206;-6.106;2022-12-18T10:32:21;2.30;;;1.08;;
58685;SDS011;44465;53.206;-6.106;2022-12-18T10:34:49;2.03;;;1.40;;
58685;SDS011;44465;53.206;-6.106;2022-12-18T10:37:17;2.08;;;1.17;;
58685;SDS011;44465;53.206;-6.106;2022-12-18T10:39:45;2.47;;;1.45;;
58685;SDS011;44465;53.206;-6.106;2022-12-18T10:42:19;3.10;;;1.38;;
58685;SDS011;44465;53.206;-6.106;2022-12-18T10:44:45;6.65;;;1.83;;
58685;SDS011;44465;53.206;-6.106;2022-12-18T10:47:12;5.38;;;1.60;;
58685;SDS011;44465;53.206;-6.106;2022-12-18T10:49:48;5.85;;;1.65;;
58685;SDS011;44465;53.206;-6.106;2022-12-18T10:54:49;55.47;;;28.02;;
58685;SDS011;44465;53.206;-6.106;2022-12-18T11:00:20;49.05;;;24.70;;
58685;SDS011;44465;53.206;-6.106;2022-12-18T11:02:54;39.53;;;21.42;;
58685;SDS011;44465;53.206;-6.106;2022-12-18T11:05:31;38.53;;;19.02;;
58685;SDS011;44465;53.206;-6.106;2022-12-18T11:07:58;34.95;;;18.38;;
58685;SDS011;44465;53.206;-6.106;2022-12-18T11:10:27;33.97;;;16.85;;
58685;SDS011;44465;53.206;-6.106;2022-12-18T11:12:55;30.13;;;14.10;;
58685;SDS011;44465;53.206;-6.106;2022-12-18T11:15:23;30.23;;;12.93;;
58685;SDS011;44465;53.206;-6.106;2022-12-18T11:17:52;29.30;;;14.02;;
58685;SDS011;44465;53.206;-6.106;2022-12-18T11:20:20;29.60;;;12.60;;
58685;SDS011;44465;53.206;-6.106;2022-12-18T11:23:01;24.70;;;12.23;;
58685;SDS011;44465;53.206;-6.106;2022-12-18T11:25:31;29.23;;;11.65;;
58685;SDS011;44465;53.206;-6.106;2022-12-18T11:30:42;26.95;;;10.55;;
58685;SDS011;44465;53.206;-6.106;2022-12-18T11:33:20;25.95;;;8.95;;
58685;SDS011;44465;53.206;-6.106;2022-12-18T11:35:49;22.73;;;9.57;;
58685;SDS011;44465;53.206;-6.106;2022-12-18T11:38:34;20.08;;;9.90;;
58685;SDS011;44465;53.206;-6.106;2022-12-18T11:41:04;15.93;;;8.00;;
58685;SDS011;44465;53.206;-6.106;2022-12-18T11:43:56;19.45;;;7.97;;
58685;SDS011;44465;53.206;-6.106;2022-12-18T11:46:30;18.55;;;7.40;;
58685;SDS011;44465;53.206;-6.106;2022-12-18T11:49:05;17.02;;;7.28;;
58685;SDS011;44465;53.206;-6.106;2022-12-18T11:51:50;15.30;;;6.88;;
58685;SDS011;44465;53.206;-6.106;2022-12-18T11:54:20;17.67;;;7.15;;
58685;SDS011;44465;53.206;-6.106;2022-12-18T11:56:48;13.77;;;6.38;;
58685;SDS011;44465;53.206;-6.106;2022-12-18T12:10:04;13.43;;;5.38;;
58685;SDS011;44465;53.206;-6.106;2022-12-18T12:26:23;12.10;;;4.93;;
58685;SDS011;44465;53.206;-6.106;2022-12-18T12:32:14;9.88;;;4.10;;
58685;SDS011;44465;53.206;-6.106;2022-12-18T12:40:21;11.98;;;4.13;;
58685;SDS011;44465;53.206;-6.106;2022-12-18T12:42:54;8.25;;;3.55;;
58685;SDS011;44465;53.206;-6.106;2022-12-18T12:45:47;6.10;;;3.33;;
58685;SDS011;44465;53.206;-6.106;2022-12-18T12:48:18;6.97;;;3.60;;
58685;SDS011;44465;53.206;-6.106;2022-12-18T12:50:52;8.77;;;3.55;;
58685;SDS011;44465;53.206;-6.106;2022-12-18T12:53:26;13.77;;;3.97;;
58685;SDS011;44465;53.206;-6.106;2022-12-18T12:55:55;8.77;;;3.33;;
58685;SDS011;44465;53.206;-6.106;2022-12-18T13:01:08;9.63;;;3.15;;
58685;SDS011;44465;53.206;-6.106;2022-12-18T13:06:24;12.25;;;3.53;;
58685;SDS011;44465;53.206;-6.106;2022-12-18T13:09:01;10.60;;;3.33;;
58685;SDS011;44465;53.206;-6.106;2022-12-18T13:11:39;8.80;;;2.88;;
58685;SDS011;44465;53.206;-6.106;2022-12-18T13:14:33;10.90;;;3.40;;
58685;SDS011;44465;53.206;-6.106;2022-12-18T13:22:30;8.30;;;3.20;;
58685;SDS011;44465;53.206;-6.106;2022-12-18T13:24:59;8.70;;;3.42;;
58685;SDS011;44465;53.206;-6.106;2022-12-18T13:35:53;6.90;;;2.55;;
58685;SDS011;44465;53.206;-6.106;2022-12-18T13:41:02;4.80;;;2.55;;
58685;SDS011;44465;53.206;-6.106;2022-12-18T13:43:48;3.83;;;2.22;;
58685;SDS011;44465;53.206;-6.106;2022-12-18T13:46:44;8.75;;;3.22;;
58685;SDS011;44465;53.206;-6.106;2022-12-18T13:51:44;4.80;;;2.30;;
58685;SDS011;44465;53.206;-6.106;2022-12-18T13:57:29;5.07;;;2.13;;
58685;SDS011;44465;53.206;-6.106;2022-12-18T13:59:57;3.45;;;2.03;;
58685;SDS011;44465;53.206;-6.106;2022-12-18T14:02:24;7.57;;;2.50;;
58685;SDS011;44465;53.206;-6.106;2022-12-18T14:04:52;3.75;;;1.70;;
58685;SDS011;44465;53.206;-6.106;2022-12-18T14:07:20;4.95;;;2.40;;
58685;SDS011;44465;53.206;-6.106;2022-12-18T14:12:29;6.72;;;2.30;;
58685;SDS011;44465;53.206;-6.106;2022-12-18T14:15:34;3.10;;;1.90;;
58685;SDS011;44465;53.206;-6.106;2022-12-18T14:21:03;5.20;;;1.95;;
58685;SDS011;44465;53.206;-6.106;2022-12-18T14:28:45;5.43;;;2.13;;
58685;SDS011;44465;53.206;-6.106;2022-12-18T14:31:19;3.65;;;2.05;;
58685;SDS011;44465;53.206;-6.106;2022-12-18T14:33:48;4.80;;;1.83;;
58685;SDS011;44465;53.206;-6.106;2022-12-18T14:36:26;5.93;;;2.30;;
58685;SDS011;44465;53.206;-6.106;2022-12-18T14:38:57;5.45;;;2.33;;
58685;SDS011;44465;53.206;-6.106;2022-12-18T14:41:24;4.95;;;2.17;;
58685;SDS011;44465;53.206;-6.106;2022-12-18T14:43:51;5.77;;;2.30;;
58685;SDS011;44465;53.206;-6.106;2022-12-18T14:46:37;6.90;;;2.35;;
58685;SDS011;44465;53.206;-6.106;2022-12-18T14:51:55;4.13;;;2.00;;
58685;SDS011;44465;53.206;-6.106;2022-12-18T14:54:26;4.10;;;1.70;;
58685;SDS011;44465;53.206;-6.106;2022-12-18T14:57:04;7.35;;;2.08;;
58685;SDS011;44465;53.206;-6.106;2022-12-18T14:59:42;4.38;;;1.85;;
58685;SDS011;44465;53.206;-6.106;2022-12-18T15:02:15;4.28;;;1.70;;
58685;SDS011;44465;53.206;-6.106;2022-12-18T15:05:03;3.50;;;1.90;;
58685;SDS011;44465;53.206;-6.106;2022-12-18T15:07:49;2.78;;;1.50;;
58685;SDS011;44465;53.206;-6.106;2022-12-18T15:10:21;2.65;;;1.50;;
58685;SDS011;44465;53.206;-6.106;2022-12-18T15:15:45;3.13;;;1.83;;
58685;SDS011;44465;53.206;-6.106;2022-12-18T15:24:22;22.95;;;4.03;;
58685;SDS011;44465;53.206;-6.106;2022-12-18T15:26:55;19.45;;;2.60;;
58685;SDS011;44465;53.206;-6.106;2022-12-18T15:29:23;15.10;;;2.58;;
58685;SDS011;44465;53.206;-6.106;2022-12-18T15:32:04;14.35;;;3.30;;
58685;SDS011;44465;53.206;-6.106;2022-12-18T15:34:42;11.20;;;2.28;;
58685;SDS011;44465;53.206;-6.106;2022-12-18T15:37:08;9.10;;;2.50;;
58685;SDS011;44465;53.206;-6.106;2022-12-18T15:42:30;7.43;;;2.38;;
58685;SDS011;44465;53.206;-6.106;2022-12-18T15:45:14;4.82;;;1.70;;
58685;SDS011;44465;53.206;-6.106;2022-12-18T15:47:40;5.38;;;1.88;;
58685;SDS011;44465;53.206;-6.106;2022-12-18T15:50:07;4.00;;;2.08;;
58685;SDS011;44465;53.206;-6.106;2022-12-18T15:52:36;5.30;;;1.60;;
58685;SDS011;44465;53.206;-6.106;2022-12-18T15:55:15;5.80;;;1.65;;
58685;SDS011;44465;53.206;-6.106;2022-12-18T15:58:01;4.50;;;1.90;;
58685;SDS011;44465;53.206;-6.106;2022-12-18T16:00:29;6.60;;;2.00;;
58685;SDS011;44465;53.206;-6.106;2022-12-18T16:02:58;9.77;;;2.20;;
58685;SDS011;44465;53.206;-6.106;2022-12-18T16:05:26;13.13;;;2.75;;
58685;SDS011;44465;53.206;-6.106;2022-12-18T16:07:52;6.23;;;2.27;;
58685;SDS011;44465;53.206;-6.106;2022-12-18T16:10:18;3.72;;;1.88;;
58685;SDS011;44465;53.206;-6.106;2022-12-18T16:12:44;8.77;;;1.98;;
58685;SDS011;44465;53.206;-6.106;2022-12-18T16:15:10;6.72;;;2.10;;
58685;SDS011;44465;53.206;-6.106;2022-12-18T16:17:39;6.22;;;2.28;;
58685;SDS011;44465;53.206;-6.106;2022-12-18T16:20:06;7.15;;;1.88;;
58685;SDS011;44465;53.206;-6.106;2022-12-18T16:22:49;5.65;;;1.60;;
58685;SDS011;44465;53.206;-6.106;2022-12-18T16:25:27;5.43;;;1.77;;
58685;SDS011;44465;53.206;-6.106;2022-12-18T16:27:54;8.70;;;2.25;;
58685;SDS011;44465;53.206;-6.106;2022-12-18T16:30:23;5.05;;;2.08;;
58685;SDS011;44465;53.206;-6.106;2022-12-18T16:32:52;8.23;;;1.90;;
58685;SDS011;44465;53.206;-6.106;2022-12-18T16:35:17;10.00;;;2.03;;
58685;SDS011;44465;53.206;-6.106;2022-12-18T16:37:43;4.25;;;1.85;;
58685;SDS011;44465;53.206;-6.106;2022-12-18T16:40:10;5.93;;;1.80;;
58685;SDS011;44465;53.206;-6.106;2022-12-18T16:42:40;3.22;;;1.42;;
58685;SDS011;44465;53.206;-6.106;2022-12-18T16:48:10;2.90;;;1.48;;
58685;SDS011;44465;53.206;-6.106;2022-12-18T16:50:36;3.65;;;1.50;;
58685;SDS011;44465;53.206;-6.106;2022-12-18T16:53:02;3.85;;;1.73;;
58685;SDS011;44465;53.206;-6.106;2022-12-18T16:55:28;4.95;;;1.45;;
58685;SDS011;44465;53.206;-6.106;2022-12-18T16:57:56;3.03;;;1.60;;
58685;SDS011;44465;53.206;-6.106;2022-12-18T17:00:21;2.67;;;1.30;;
58685;SDS011;44465;53.206;-6.106;2022-12-18T17:02:47;4.72;;;1.60;;
58685;SDS011;44465;53.206;-6.106;2022-12-18T17:05:13;8.38;;;2.00;;
58685;SDS011;44465;53.206;-6.106;2022-12-18T17:07:40;7.28;;;2.05;;
58685;SDS011;44465;53.206;-6.106;2022-12-18T17:10:06;9.43;;;1.95;;
58685;SDS011;44465;53.206;-6.106;2022-12-18T17:12:32;10.35;;;2.47;;
58685;SDS011;44465;53.206;-6.106;2022-12-18T17:14:58;7.60;;;1.95;;
58685;SDS011;44465;53.206;-6.106;2022-12-18T17:17:23;8.18;;;2.13;;
58685;SDS011;44465;53.206;-6.106;2022-12-18T17:19:49;3.13;;;1.08;;
58685;SDS011;44465;53.206;-6.106;2022-12-18T17:22:16;9.82;;;2.15;;
58685;SDS011;44465;53.206;-6.106;2022-12-18T17:24:42;9.00;;;1.45;;
58685;SDS011;44465;53.206;-6.106;2022-12-18T17:27:07;6.68;;;1.90;;
58685;SDS011;44465;53.206;-6.106;2022-12-18T17:29:35;7.40;;;1.95;;
58685;SDS011;44465;53.206;-6.106;2022-12-18T17:32:01;5.10;;;1.40;;
58685;SDS011;44465;53.206;-6.106;2022-12-18T17:34:27;3.15;;;1.48;;
58685;SDS011;44465;53.206;-6.106;2022-12-18T17:36:55;8.43;;;2.65;;
58685;SDS011;44465;53.206;-6.106;2022-12-18T17:39:21;6.15;;;1.98;;
58685;SDS011;44465;53.206;-6.106;2022-12-18T17:41:47;5.40;;;1.60;;
58685;SDS011;44465;53.206;-6.106;2022-12-18T17:44:13;3.13;;;1.42;;
58685;SDS011;44465;53.206;-6.106;2022-12-18T17:46:41;6.80;;;2.00;;